sensor_id;sensor_type;location;lat;lon;timestamp;temperature;humidity
7192;DHT22;3637;51.494;11.958;2022-07-18T00:00:30;17.50;75.70
7192;DHT22;3637;51.494;11.958;2022-07-18T00:03:32;17.50;75.60
7192;DHT22;3637;51.494;11.958;2022-07-18T00:06:34;17.30;75.80
7192;DHT22;3637;51.494;11.958;2022-07-18T00:09:37;17.30;76.10
7192;DHT22;3637;51.494;11.958;2022-07-18T00:12:40;17.30;76.90
7192;DHT22;3637;51.494;11.958;2022-07-18T00:15:42;17.20;77.00
7192;DHT22;3637;51.494;11.958;2022-07-18T00:18:44;17.30;76.90
7192;DHT22;3637;51.494;11.958;2022-07-18T00:21:46;17.20;77.10
7192;DHT22;3637;51.494;11.958;2022-07-18T00:24:48;17.10;76.90
7192;DHT22;3637;51.494;11.958;2022-07-18T00:27:51;17.20;75.70
7192;DHT22;3637;51.494;11.958;2022-07-18T00:30:53;17.20;75.30
7192;DHT22;3637;51.494;11.958;2022-07-18T00:33:55;17.10;74.00
7192;DHT22;3637;51.494;11.958;2022-07-18T00:36:57;17.00;72.20
7192;DHT22;3637;51.494;11.958;2022-07-18T00:39:59;17.00;70.90
7192;DHT22;3637;51.494;11.958;2022-07-18T00:43:03;17.00;70.40
7192;DHT22;3637;51.494;11.958;2022-07-18T00:46:04;17.00;70.20
7192;DHT22;3637;51.494;11.958;2022-07-18T00:49:06;16.90;70.80
7192;DHT22;3637;51.494;11.958;2022-07-18T00:52:08;16.80;70.30
7192;DHT22;3637;51.494;11.958;2022-07-18T00:55:10;16.80;70.80
7192;DHT22;3637;51.494;11.958;2022-07-18T00:58:14;16.80;70.70
7192;DHT22;3637;51.494;11.958;2022-07-18T01:01:16;16.80;71.70
7192;DHT22;3637;51.494;11.958;2022-07-18T01:04:35;16.80;72.00
7192;DHT22;3637;51.494;11.958;2022-07-18T01:07:37;16.90;73.30
7192;DHT22;3637;51.494;11.958;2022-07-18T01:10:39;16.70;73.70
7192;DHT22;3637;51.494;11.958;2022-07-18T01:13:43;16.80;73.40
7192;DHT22;3637;51.494;11.958;2022-07-18T01:16:45;16.70;73.30
7192;DHT22;3637;51.494;11.958;2022-07-18T01:19:47;16.70;72.90
7192;DHT22;3637;51.494;11.958;2022-07-18T01:22:50;16.70;72.30
7192;DHT22;3637;51.494;11.958;2022-07-18T01:25:52;16.60;71.60
7192;DHT22;3637;51.494;11.958;2022-07-18T01:28:54;16.60;73.10
7192;DHT22;3637;51.494;11.958;2022-07-18T01:31:56;16.60;74.30
7192;DHT22;3637;51.494;11.958;2022-07-18T01:35:05;16.50;75.70
7192;DHT22;3637;51.494;11.958;2022-07-18T01:38:08;16.40;76.30
7192;DHT22;3637;51.494;11.958;2022-07-18T01:41:10;16.30;76.80
7192;DHT22;3637;51.494;11.958;2022-07-18T01:44:12;16.30;76.60
7192;DHT22;3637;51.494;11.958;2022-07-18T01:47:14;16.20;76.50
7192;DHT22;3637;51.494;11.958;2022-07-18T01:50:17;16.20;75.20
7192;DHT22;3637;51.494;11.958;2022-07-18T01:53:20;16.20;74.50
7192;DHT22;3637;51.494;11.958;2022-07-18T01:56:24;16.20;75.30
7192;DHT22;3637;51.494;11.958;2022-07-18T01:59:26;16.10;76.40
7192;DHT22;3637;51.494;11.958;2022-07-18T02:02:28;16.20;77.00
7192;DHT22;3637;51.494;11.958;2022-07-18T02:05:30;16.10;77.60
7192;DHT22;3637;51.494;11.958;2022-07-18T02:08:34;16.10;77.50
7192;DHT22;3637;51.494;11.958;2022-07-18T02:11:36;16.10;77.80
7192;DHT22;3637;51.494;11.958;2022-07-18T02:14:38;16.10;77.80
7192;DHT22;3637;51.494;11.958;2022-07-18T02:17:40;16.00;78.60
7192;DHT22;3637;51.494;11.958;2022-07-18T02:20:42;16.00;78.80
7192;DHT22;3637;51.494;11.958;2022-07-18T02:23:46;15.90;78.60
7192;DHT22;3637;51.494;11.958;2022-07-18T02:26:48;16.00;77.50
7192;DHT22;3637;51.494;11.958;2022-07-18T02:29:50;15.90;77.00
7192;DHT22;3637;51.494;11.958;2022-07-18T02:32:52;15.80;75.80
7192;DHT22;3637;51.494;11.958;2022-07-18T02:35:55;15.80;74.70
7192;DHT22;3637;51.494;11.958;2022-07-18T02:38:59;15.80;73.30
7192;DHT22;3637;51.494;11.958;2022-07-18T02:42:01;15.90;73.30
7192;DHT22;3637;51.494;11.958;2022-07-18T02:45:04;15.80;73.20
7192;DHT22;3637;51.494;11.958;2022-07-18T02:48:06;15.70;73.30
7192;DHT22;3637;51.494;11.958;2022-07-18T02:51:08;15.70;73.00
7192;DHT22;3637;51.494;11.958;2022-07-18T02:54:11;15.80;73.80
7192;DHT22;3637;51.494;11.958;2022-07-18T02:57:13;15.80;74.70
7192;DHT22;3637;51.494;11.958;2022-07-18T03:00:15;15.70;75.00
7192;DHT22;3637;51.494;11.958;2022-07-18T03:03:17;15.70;75.30
7192;DHT22;3637;51.494;11.958;2022-07-18T03:06:19;15.70;75.40
7192;DHT22;3637;51.494;11.958;2022-07-18T03:09:22;15.80;75.60
7192;DHT22;3637;51.494;11.958;2022-07-18T03:12:27;15.70;76.40
7192;DHT22;3637;51.494;11.958;2022-07-18T03:15:29;15.80;77.40
7192;DHT22;3637;51.494;11.958;2022-07-18T03:18:31;15.70;77.80
7192;DHT22;3637;51.494;11.958;2022-07-18T03:21:33;15.70;78.00
7192;DHT22;3637;51.494;11.958;2022-07-18T03:24:36;15.60;77.90
7192;DHT22;3637;51.494;11.958;2022-07-18T03:27:38;15.50;78.40
7192;DHT22;3637;51.494;11.958;2022-07-18T03:30:40;15.50;77.90
7192;DHT22;3637;51.494;11.958;2022-07-18T03:33:42;15.50;77.90
7192;DHT22;3637;51.494;11.958;2022-07-18T03:36:44;15.50;77.90
7192;DHT22;3637;51.494;11.958;2022-07-18T03:39:48;15.50;77.70
7192;DHT22;3637;51.494;11.958;2022-07-18T03:42:50;15.40;78.40
7192;DHT22;3637;51.494;11.958;2022-07-18T03:45:51;15.40;78.60
7192;DHT22;3637;51.494;11.958;2022-07-18T03:48:53;15.40;78.50
7192;DHT22;3637;51.494;11.958;2022-07-18T03:51:55;15.40;77.70
7192;DHT22;3637;51.494;11.958;2022-07-18T03:54:59;15.30;77.20
7192;DHT22;3637;51.494;11.958;2022-07-18T03:58:02;15.40;75.00
7192;DHT22;3637;51.494;11.958;2022-07-18T04:01:04;15.40;75.50
7192;DHT22;3637;51.494;11.958;2022-07-18T04:04:06;15.40;75.30
7192;DHT22;3637;51.494;11.958;2022-07-18T04:07:08;15.40;76.20
7192;DHT22;3637;51.494;11.958;2022-07-18T04:10:12;15.50;77.10
7192;DHT22;3637;51.494;11.958;2022-07-18T04:13:14;15.50;77.00
7192;DHT22;3637;51.494;11.958;2022-07-18T04:16:16;15.40;76.30
7192;DHT22;3637;51.494;11.958;2022-07-18T04:19:17;15.40;76.70
7192;DHT22;3637;51.494;11.958;2022-07-18T04:22:19;15.50;77.50
7192;DHT22;3637;51.494;11.958;2022-07-18T04:25:26;15.50;77.90
7192;DHT22;3637;51.494;11.958;2022-07-18T04:28:28;15.50;76.50
7192;DHT22;3637;51.494;11.958;2022-07-18T04:31:29;15.60;76.20
7192;DHT22;3637;51.494;11.958;2022-07-18T04:34:32;15.60;75.80
7192;DHT22;3637;51.494;11.958;2022-07-18T04:37:34;15.60;74.20
7192;DHT22;3637;51.494;11.958;2022-07-18T04:40:38;15.60;74.10
7192;DHT22;3637;51.494;11.958;2022-07-18T04:43:40;15.60;73.80
7192;DHT22;3637;51.494;11.958;2022-07-18T04:46:42;15.50;73.70
7192;DHT22;3637;51.494;11.958;2022-07-18T04:49:44;15.70;73.20
7192;DHT22;3637;51.494;11.958;2022-07-18T04:52:46;15.80;73.40
7192;DHT22;3637;51.494;11.958;2022-07-18T04:55:50;15.80;73.50
7192;DHT22;3637;51.494;11.958;2022-07-18T04:58:52;15.90;72.70
7192;DHT22;3637;51.494;11.958;2022-07-18T05:01:53;15.90;72.30
7192;DHT22;3637;51.494;11.958;2022-07-18T05:04:55;16.00;72.10
7192;DHT22;3637;51.494;11.958;2022-07-18T05:07:58;16.00;71.00
7192;DHT22;3637;51.494;11.958;2022-07-18T05:11:01;16.10;70.70
7192;DHT22;3637;51.494;11.958;2022-07-18T05:14:03;16.10;70.60
7192;DHT22;3637;51.494;11.958;2022-07-18T05:17:05;16.20;71.60
7192;DHT22;3637;51.494;11.958;2022-07-18T05:20:09;16.20;72.60
7192;DHT22;3637;51.494;11.958;2022-07-18T05:23:13;16.30;71.90
7192;DHT22;3637;51.494;11.958;2022-07-18T05:26:17;16.30;72.10
7192;DHT22;3637;51.494;11.958;2022-07-18T05:29:19;16.50;72.60
7192;DHT22;3637;51.494;11.958;2022-07-18T05:32:21;16.50;72.20
7192;DHT22;3637;51.494;11.958;2022-07-18T05:35:22;16.60;72.10
7192;DHT22;3637;51.494;11.958;2022-07-18T05:38:24;16.70;71.90
7192;DHT22;3637;51.494;11.958;2022-07-18T05:41:28;16.80;71.30
7192;DHT22;3637;51.494;11.958;2022-07-18T05:44:30;16.90;71.00
7192;DHT22;3637;51.494;11.958;2022-07-18T05:47:32;17.00;70.80
7192;DHT22;3637;51.494;11.958;2022-07-18T05:50:34;17.10;70.70
7192;DHT22;3637;51.494;11.958;2022-07-18T05:53:35;17.20;70.40
7192;DHT22;3637;51.494;11.958;2022-07-18T05:56:39;17.30;70.30
7192;DHT22;3637;51.494;11.958;2022-07-18T05:59:41;17.30;69.70
7192;DHT22;3637;51.494;11.958;2022-07-18T06:02:42;17.50;69.50
7192;DHT22;3637;51.494;11.958;2022-07-18T06:05:44;17.60;68.80
7192;DHT22;3637;51.494;11.958;2022-07-18T06:08:46;17.70;68.90
7192;DHT22;3637;51.494;11.958;2022-07-18T06:11:50;17.70;68.70
7192;DHT22;3637;51.494;11.958;2022-07-18T06:14:52;17.80;67.70
7192;DHT22;3637;51.494;11.958;2022-07-18T06:17:54;17.90;67.30
7192;DHT22;3637;51.494;11.958;2022-07-18T06:20:56;18.00;66.50
7192;DHT22;3637;51.494;11.958;2022-07-18T06:23:58;18.10;66.00
7192;DHT22;3637;51.494;11.958;2022-07-18T06:27:01;18.10;65.20
7192;DHT22;3637;51.494;11.958;2022-07-18T06:30:04;18.20;65.10
7192;DHT22;3637;51.494;11.958;2022-07-18T06:33:07;18.30;64.70
7192;DHT22;3637;51.494;11.958;2022-07-18T06:36:09;18.40;65.80
7192;DHT22;3637;51.494;11.958;2022-07-18T06:39:12;18.50;65.00
7192;DHT22;3637;51.494;11.958;2022-07-18T06:42:18;18.60;65.30
7192;DHT22;3637;51.494;11.958;2022-07-18T06:45:20;18.70;65.00
7192;DHT22;3637;51.494;11.958;2022-07-18T06:48:22;18.70;64.10
7192;DHT22;3637;51.494;11.958;2022-07-18T06:51:24;18.80;64.20
7192;DHT22;3637;51.494;11.958;2022-07-18T06:54:26;19.00;64.00
7192;DHT22;3637;51.494;11.958;2022-07-18T06:57:30;19.00;64.20
7192;DHT22;3637;51.494;11.958;2022-07-18T07:00:31;19.10;63.70
7192;DHT22;3637;51.494;11.958;2022-07-18T07:03:33;19.20;63.70
7192;DHT22;3637;51.494;11.958;2022-07-18T07:06:35;19.30;63.40
7192;DHT22;3637;51.494;11.958;2022-07-18T07:09:38;19.50;61.50
7192;DHT22;3637;51.494;11.958;2022-07-18T07:12:44;19.60;61.40
7192;DHT22;3637;51.494;11.958;2022-07-18T07:15:46;19.50;61.90
7192;DHT22;3637;51.494;11.958;2022-07-18T07:18:48;19.70;61.70
7192;DHT22;3637;51.494;11.958;2022-07-18T07:21:50;19.80;61.10
7192;DHT22;3637;51.494;11.958;2022-07-18T07:24:52;19.80;61.40
7192;DHT22;3637;51.494;11.958;2022-07-18T07:27:55;19.90;61.80
7192;DHT22;3637;51.494;11.958;2022-07-18T07:30:57;19.90;61.10
7192;DHT22;3637;51.494;11.958;2022-07-18T07:33:59;20.00;59.30
7192;DHT22;3637;51.494;11.958;2022-07-18T07:37:00;20.10;59.30
7192;DHT22;3637;51.494;11.958;2022-07-18T07:40:03;20.20;58.90
7192;DHT22;3637;51.494;11.958;2022-07-18T07:43:09;20.30;59.40
7192;DHT22;3637;51.494;11.958;2022-07-18T07:46:11;20.40;59.20
7192;DHT22;3637;51.494;11.958;2022-07-18T07:49:13;20.50;59.10
7192;DHT22;3637;51.494;11.958;2022-07-18T07:52:15;20.60;56.40
7192;DHT22;3637;51.494;11.958;2022-07-18T07:55:18;20.70;57.00
7192;DHT22;3637;51.494;11.958;2022-07-18T07:58:21;20.70;57.00
7192;DHT22;3637;51.494;11.958;2022-07-18T08:01:23;20.80;56.50
7192;DHT22;3637;51.494;11.958;2022-07-18T08:04:25;21.00;55.90
7192;DHT22;3637;51.494;11.958;2022-07-18T08:07:27;21.20;55.20
7192;DHT22;3637;51.494;11.958;2022-07-18T08:10:30;21.20;55.20
7192;DHT22;3637;51.494;11.958;2022-07-18T08:13:33;21.20;55.90
7192;DHT22;3637;51.494;11.958;2022-07-18T08:16:35;21.40;53.40
7192;DHT22;3637;51.494;11.958;2022-07-18T08:19:37;21.60;52.40
7192;DHT22;3637;51.494;11.958;2022-07-18T08:22:52;21.70;53.10
7192;DHT22;3637;51.494;11.958;2022-07-18T08:25:54;21.80;51.80
7192;DHT22;3637;51.494;11.958;2022-07-18T08:28:58;21.90;49.30
7192;DHT22;3637;51.494;11.958;2022-07-18T08:31:59;22.00;48.80
7192;DHT22;3637;51.494;11.958;2022-07-18T08:35:02;22.10;49.80
7192;DHT22;3637;51.494;11.958;2022-07-18T08:38:04;22.10;49.20
7192;DHT22;3637;51.494;11.958;2022-07-18T08:41:06;22.20;48.80
7192;DHT22;3637;51.494;11.958;2022-07-18T08:44:10;22.30;48.30
7192;DHT22;3637;51.494;11.958;2022-07-18T08:47:13;22.30;48.20
7192;DHT22;3637;51.494;11.958;2022-07-18T08:50:17;22.40;48.20
7192;DHT22;3637;51.494;11.958;2022-07-18T08:53:19;22.40;48.60
7192;DHT22;3637;51.494;11.958;2022-07-18T08:56:21;22.60;46.90
7192;DHT22;3637;51.494;11.958;2022-07-18T08:59:24;22.70;47.90
7192;DHT22;3637;51.494;11.958;2022-07-18T09:02:27;22.80;46.00
7192;DHT22;3637;51.494;11.958;2022-07-18T09:05:30;22.90;45.50
7192;DHT22;3637;51.494;11.958;2022-07-18T09:08:32;22.80;45.20
7192;DHT22;3637;51.494;11.958;2022-07-18T09:11:35;22.90;44.30
7192;DHT22;3637;51.494;11.958;2022-07-18T09:14:39;23.00;44.90
7192;DHT22;3637;51.494;11.958;2022-07-18T09:17:41;23.10;45.00
7192;DHT22;3637;51.494;11.958;2022-07-18T09:20:57;23.20;44.10
7192;DHT22;3637;51.494;11.958;2022-07-18T09:23:59;23.40;44.50
7192;DHT22;3637;51.494;11.958;2022-07-18T09:27:01;23.40;44.40
7192;DHT22;3637;51.494;11.958;2022-07-18T09:30:16;23.50;44.20
7192;DHT22;3637;51.494;11.958;2022-07-18T09:33:19;23.50;44.20
7192;DHT22;3637;51.494;11.958;2022-07-18T09:36:22;23.60;43.70
7192;DHT22;3637;51.494;11.958;2022-07-18T09:39:24;23.60;43.30
7192;DHT22;3637;51.494;11.958;2022-07-18T09:42:26;23.60;43.40
7192;DHT22;3637;51.494;11.958;2022-07-18T09:45:33;23.70;42.60
7192;DHT22;3637;51.494;11.958;2022-07-18T09:48:35;23.70;42.60
7192;DHT22;3637;51.494;11.958;2022-07-18T09:51:37;23.70;42.10
7192;DHT22;3637;51.494;11.958;2022-07-18T09:54:40;23.80;42.60
7192;DHT22;3637;51.494;11.958;2022-07-18T09:57:42;23.80;41.70
7192;DHT22;3637;51.494;11.958;2022-07-18T10:00:46;23.90;41.10
7192;DHT22;3637;51.494;11.958;2022-07-18T10:03:49;24.00;41.00
7192;DHT22;3637;51.494;11.958;2022-07-18T10:06:51;24.00;40.10
7192;DHT22;3637;51.494;11.958;2022-07-18T10:09:53;24.00;41.30
7192;DHT22;3637;51.494;11.958;2022-07-18T10:12:56;24.10;39.70
7192;DHT22;3637;51.494;11.958;2022-07-18T10:16:01;24.20;39.40
7192;DHT22;3637;51.494;11.958;2022-07-18T10:19:03;24.20;40.20
7192;DHT22;3637;51.494;11.958;2022-07-18T10:22:06;24.20;39.40
7192;DHT22;3637;51.494;11.958;2022-07-18T10:25:09;24.20;40.30
7192;DHT22;3637;51.494;11.958;2022-07-18T10:28:13;24.30;40.00
7192;DHT22;3637;51.494;11.958;2022-07-18T10:31:16;24.50;40.60
7192;DHT22;3637;51.494;11.958;2022-07-18T10:34:28;24.50;39.70
7192;DHT22;3637;51.494;11.958;2022-07-18T10:37:31;24.50;39.40
7192;DHT22;3637;51.494;11.958;2022-07-18T10:40:34;24.50;39.60
7192;DHT22;3637;51.494;11.958;2022-07-18T10:43:45;24.50;39.80
7192;DHT22;3637;51.494;11.958;2022-07-18T10:47:08;24.70;41.00
7192;DHT22;3637;51.494;11.958;2022-07-18T10:50:10;24.80;40.80
7192;DHT22;3637;51.494;11.958;2022-07-18T10:53:12;24.80;41.30
7192;DHT22;3637;51.494;11.958;2022-07-18T10:56:14;25.00;40.90
7192;DHT22;3637;51.494;11.958;2022-07-18T10:59:16;25.10;40.40
7192;DHT22;3637;51.494;11.958;2022-07-18T11:02:30;25.00;40.50
7192;DHT22;3637;51.494;11.958;2022-07-18T11:05:33;24.90;41.40
7192;DHT22;3637;51.494;11.958;2022-07-18T11:08:36;25.00;41.40
7192;DHT22;3637;51.494;11.958;2022-07-18T11:15:19;25.20;39.90
7192;DHT22;3637;51.494;11.958;2022-07-18T11:18:23;25.30;40.60
7192;DHT22;3637;51.494;11.958;2022-07-18T11:21:26;25.30;41.10
7192;DHT22;3637;51.494;11.958;2022-07-18T11:24:29;25.50;40.90
7192;DHT22;3637;51.494;11.958;2022-07-18T11:27:31;25.40;41.20
7192;DHT22;3637;51.494;11.958;2022-07-18T11:30:33;25.50;40.90
7192;DHT22;3637;51.494;11.958;2022-07-18T11:33:38;25.60;40.80
7192;DHT22;3637;51.494;11.958;2022-07-18T11:36:42;25.80;40.50
7192;DHT22;3637;51.494;11.958;2022-07-18T11:39:44;25.80;39.60
7192;DHT22;3637;51.494;11.958;2022-07-18T11:42:46;25.80;39.60
7192;DHT22;3637;51.494;11.958;2022-07-18T11:45:58;25.70;40.20
7192;DHT22;3637;51.494;11.958;2022-07-18T11:49:04;25.80;39.70
7192;DHT22;3637;51.494;11.958;2022-07-18T11:52:07;25.80;40.50
7192;DHT22;3637;51.494;11.958;2022-07-18T11:55:11;26.00;39.90
7192;DHT22;3637;51.494;11.958;2022-07-18T11:58:14;26.00;39.60
7192;DHT22;3637;51.494;11.958;2022-07-18T12:01:17;26.20;39.10
7192;DHT22;3637;51.494;11.958;2022-07-18T12:04:21;26.20;38.80
7192;DHT22;3637;51.494;11.958;2022-07-18T12:07:24;26.20;38.60
7192;DHT22;3637;51.494;11.958;2022-07-18T12:10:26;26.20;38.60
7192;DHT22;3637;51.494;11.958;2022-07-18T12:13:39;26.30;38.30
7192;DHT22;3637;51.494;11.958;2022-07-18T12:16:42;26.40;38.10
7192;DHT22;3637;51.494;11.958;2022-07-18T12:19:46;26.50;38.30
7192;DHT22;3637;51.494;11.958;2022-07-18T12:23:07;26.40;38.40
7192;DHT22;3637;51.494;11.958;2022-07-18T12:26:26;26.40;38.50
7192;DHT22;3637;51.494;11.958;2022-07-18T12:29:28;26.60;38.10
7192;DHT22;3637;51.494;11.958;2022-07-18T12:32:36;26.50;38.90
7192;DHT22;3637;51.494;11.958;2022-07-18T12:35:40;26.60;39.50
7192;DHT22;3637;51.494;11.958;2022-07-18T12:38:59;26.70;38.80
7192;DHT22;3637;51.494;11.958;2022-07-18T12:42:01;26.80;38.20
7192;DHT22;3637;51.494;11.958;2022-07-18T12:45:04;26.90;37.90
7192;DHT22;3637;51.494;11.958;2022-07-18T12:48:11;27.00;37.60
7192;DHT22;3637;51.494;11.958;2022-07-18T12:51:14;27.10;37.80
7192;DHT22;3637;51.494;11.958;2022-07-18T12:54:17;27.10;37.50
7192;DHT22;3637;51.494;11.958;2022-07-18T12:57:19;27.20;37.00
7192;DHT22;3637;51.494;11.958;2022-07-18T13:00:21;27.10;37.40
7192;DHT22;3637;51.494;11.958;2022-07-18T13:03:23;27.10;37.50
7192;DHT22;3637;51.494;11.958;2022-07-18T13:06:27;27.20;37.40
7192;DHT22;3637;51.494;11.958;2022-07-18T13:09:28;27.20;37.10
7192;DHT22;3637;51.494;11.958;2022-07-18T13:12:31;27.30;37.00
7192;DHT22;3637;51.494;11.958;2022-07-18T13:15:33;27.40;37.90
7192;DHT22;3637;51.494;11.958;2022-07-18T13:18:35;27.40;38.00
7192;DHT22;3637;51.494;11.958;2022-07-18T13:21:38;27.40;37.60
7192;DHT22;3637;51.494;11.958;2022-07-18T13:24:40;27.40;37.30
7192;DHT22;3637;51.494;11.958;2022-07-18T13:27:42;27.60;36.40
7192;DHT22;3637;51.494;11.958;2022-07-18T13:30:44;27.50;36.50
7192;DHT22;3637;51.494;11.958;2022-07-18T13:33:46;27.50;37.30
7192;DHT22;3637;51.494;11.958;2022-07-18T13:36:51;27.50;36.50
7192;DHT22;3637;51.494;11.958;2022-07-18T13:39:53;27.60;37.00
7192;DHT22;3637;51.494;11.958;2022-07-18T13:42:55;27.60;37.00
7192;DHT22;3637;51.494;11.958;2022-07-18T13:45:57;27.60;37.00
7192;DHT22;3637;51.494;11.958;2022-07-18T13:48:59;27.60;36.90
7192;DHT22;3637;51.494;11.958;2022-07-18T13:52:04;27.70;36.30
7192;DHT22;3637;51.494;11.958;2022-07-18T13:55:06;27.60;36.20
7192;DHT22;3637;51.494;11.958;2022-07-18T13:58:08;27.60;37.10
7192;DHT22;3637;51.494;11.958;2022-07-18T14:01:12;27.70;37.20
7192;DHT22;3637;51.494;11.958;2022-07-18T14:04:14;27.70;35.80
7192;DHT22;3637;51.494;11.958;2022-07-18T14:07:17;27.60;37.30
7192;DHT22;3637;51.494;11.958;2022-07-18T14:10:19;27.70;37.40
7192;DHT22;3637;51.494;11.958;2022-07-18T14:13:21;27.80;36.90
7192;DHT22;3637;51.494;11.958;2022-07-18T14:16:23;27.80;36.70
7192;DHT22;3637;51.494;11.958;2022-07-18T14:19:25;27.70;35.90
7192;DHT22;3637;51.494;11.958;2022-07-18T14:22:28;27.70;37.10
7192;DHT22;3637;51.494;11.958;2022-07-18T14:25:30;27.70;37.60
7192;DHT22;3637;51.494;11.958;2022-07-18T14:28:33;27.90;36.70
7192;DHT22;3637;51.494;11.958;2022-07-18T14:31:34;28.00;36.00
7192;DHT22;3637;51.494;11.958;2022-07-18T14:34:36;28.00;36.80
7192;DHT22;3637;51.494;11.958;2022-07-18T14:37:40;28.00;36.60
7192;DHT22;3637;51.494;11.958;2022-07-18T14:40:42;28.10;36.20
7192;DHT22;3637;51.494;11.958;2022-07-18T14:43:43;28.10;36.00
7192;DHT22;3637;51.494;11.958;2022-07-18T14:46:45;28.10;36.30
7192;DHT22;3637;51.494;11.958;2022-07-18T14:49:47;28.10;36.60
7192;DHT22;3637;51.494;11.958;2022-07-18T14:52:51;28.30;36.90
7192;DHT22;3637;51.494;11.958;2022-07-18T14:55:53;28.40;35.70
7192;DHT22;3637;51.494;11.958;2022-07-18T14:58:54;28.50;35.70
7192;DHT22;3637;51.494;11.958;2022-07-18T15:01:56;28.40;35.40
7192;DHT22;3637;51.494;11.958;2022-07-18T15:04:59;28.40;35.90
7192;DHT22;3637;51.494;11.958;2022-07-18T15:08:03;28.40;36.20
7192;DHT22;3637;51.494;11.958;2022-07-18T15:11:05;28.30;36.30
7192;DHT22;3637;51.494;11.958;2022-07-18T15:14:07;28.30;37.00
7192;DHT22;3637;51.494;11.958;2022-07-18T15:17:09;28.30;35.90
7192;DHT22;3637;51.494;11.958;2022-07-18T15:20:11;28.40;36.10
7192;DHT22;3637;51.494;11.958;2022-07-18T15:23:14;28.40;36.30
7192;DHT22;3637;51.494;11.958;2022-07-18T15:26:16;28.50;35.40
7192;DHT22;3637;51.494;11.958;2022-07-18T15:29:18;28.40;35.50
7192;DHT22;3637;51.494;11.958;2022-07-18T15:32:20;28.40;36.30
7192;DHT22;3637;51.494;11.958;2022-07-18T15:35:22;28.50;35.70
7192;DHT22;3637;51.494;11.958;2022-07-18T15:38:25;28.50;36.30
7192;DHT22;3637;51.494;11.958;2022-07-18T15:41:27;28.40;35.50
7192;DHT22;3637;51.494;11.958;2022-07-18T15:44:29;28.40;36.00
7192;DHT22;3637;51.494;11.958;2022-07-18T15:47:37;28.40;35.90
7192;DHT22;3637;51.494;11.958;2022-07-18T15:50:39;28.30;35.50
7192;DHT22;3637;51.494;11.958;2022-07-18T15:53:43;28.30;36.30
7192;DHT22;3637;51.494;11.958;2022-07-18T15:56:45;28.30;35.80
7192;DHT22;3637;51.494;11.958;2022-07-18T15:59:46;28.30;37.10
7192;DHT22;3637;51.494;11.958;2022-07-18T16:02:48;28.30;36.10
7192;DHT22;3637;51.494;11.958;2022-07-18T16:05:50;28.40;36.40
7192;DHT22;3637;51.494;11.958;2022-07-18T16:08:54;28.40;36.50
7192;DHT22;3637;51.494;11.958;2022-07-18T16:11:56;28.50;36.60
7192;DHT22;3637;51.494;11.958;2022-07-18T16:14:58;28.50;35.70
7192;DHT22;3637;51.494;11.958;2022-07-18T16:18:00;28.60;36.10
7192;DHT22;3637;51.494;11.958;2022-07-18T16:21:02;28.50;35.20
7192;DHT22;3637;51.494;11.958;2022-07-18T16:24:06;28.50;36.00
7192;DHT22;3637;51.494;11.958;2022-07-18T16:27:08;28.40;36.70
7192;DHT22;3637;51.494;11.958;2022-07-18T16:30:11;28.30;37.70
7192;DHT22;3637;51.494;11.958;2022-07-18T16:33:13;28.30;36.20
7192;DHT22;3637;51.494;11.958;2022-07-18T16:36:15;28.30;36.30
7192;DHT22;3637;51.494;11.958;2022-07-18T16:39:19;28.20;37.00
7192;DHT22;3637;51.494;11.958;2022-07-18T16:42:21;28.20;36.50
7192;DHT22;3637;51.494;11.958;2022-07-18T16:45:23;28.10;36.30
7192;DHT22;3637;51.494;11.958;2022-07-18T16:48:26;28.20;36.80
7192;DHT22;3637;51.494;11.958;2022-07-18T16:51:29;28.10;37.00
7192;DHT22;3637;51.494;11.958;2022-07-18T16:54:33;28.10;36.70
7192;DHT22;3637;51.494;11.958;2022-07-18T16:57:36;28.10;37.20
7192;DHT22;3637;51.494;11.958;2022-07-18T17:00:38;28.00;37.90
7192;DHT22;3637;51.494;11.958;2022-07-18T17:03:41;28.00;37.40
7192;DHT22;3637;51.494;11.958;2022-07-18T17:06:43;27.90;37.40
7192;DHT22;3637;51.494;11.958;2022-07-18T17:09:46;28.00;37.50
7192;DHT22;3637;51.494;11.958;2022-07-18T17:12:49;27.90;37.50
7192;DHT22;3637;51.494;11.958;2022-07-18T17:15:52;27.90;36.30
7192;DHT22;3637;51.494;11.958;2022-07-18T17:18:54;27.90;37.50
7192;DHT22;3637;51.494;11.958;2022-07-18T17:21:57;27.80;38.20
7192;DHT22;3637;51.494;11.958;2022-07-18T17:25:01;27.70;38.00
7192;DHT22;3637;51.494;11.958;2022-07-18T17:28:05;27.60;38.10
7192;DHT22;3637;51.494;11.958;2022-07-18T17:31:08;27.70;37.00
7192;DHT22;3637;51.494;11.958;2022-07-18T17:34:10;27.70;36.90
7192;DHT22;3637;51.494;11.958;2022-07-18T17:37:15;27.60;38.20
7192;DHT22;3637;51.494;11.958;2022-07-18T17:40:19;27.60;38.40
7192;DHT22;3637;51.494;11.958;2022-07-18T17:43:22;27.50;38.90
7192;DHT22;3637;51.494;11.958;2022-07-18T17:46:25;27.50;38.80
7192;DHT22;3637;51.494;11.958;2022-07-18T17:49:29;27.50;38.50
7192;DHT22;3637;51.494;11.958;2022-07-18T17:52:32;27.50;38.30
7192;DHT22;3637;51.494;11.958;2022-07-18T17:55:36;27.40;38.80
7192;DHT22;3637;51.494;11.958;2022-07-18T17:58:37;27.40;38.10
7192;DHT22;3637;51.494;11.958;2022-07-18T18:01:39;27.30;37.40
7192;DHT22;3637;51.494;11.958;2022-07-18T18:04:41;27.30;38.20
7192;DHT22;3637;51.494;11.958;2022-07-18T18:07:43;27.20;39.00
7192;DHT22;3637;51.494;11.958;2022-07-18T18:10:53;27.10;39.00
7192;DHT22;3637;51.494;11.958;2022-07-18T18:13:55;27.00;39.00
7192;DHT22;3637;51.494;11.958;2022-07-18T18:16:57;27.00;38.90
7192;DHT22;3637;51.494;11.958;2022-07-18T18:20:00;26.90;38.50
7192;DHT22;3637;51.494;11.958;2022-07-18T18:23:04;26.90;38.90
7192;DHT22;3637;51.494;11.958;2022-07-18T18:26:08;26.80;39.30
7192;DHT22;3637;51.494;11.958;2022-07-18T18:29:10;26.70;39.40
7192;DHT22;3637;51.494;11.958;2022-07-18T18:32:11;26.60;39.60
7192;DHT22;3637;51.494;11.958;2022-07-18T18:35:13;26.50;39.70
7192;DHT22;3637;51.494;11.958;2022-07-18T18:38:15;26.40;39.80
7192;DHT22;3637;51.494;11.958;2022-07-18T18:41:19;26.30;39.90
7192;DHT22;3637;51.494;11.958;2022-07-18T18:44:21;26.30;40.30
7192;DHT22;3637;51.494;11.958;2022-07-18T18:47:23;26.20;40.50
7192;DHT22;3637;51.494;11.958;2022-07-18T18:50:25;26.20;40.80
7192;DHT22;3637;51.494;11.958;2022-07-18T18:53:27;26.20;41.10
7192;DHT22;3637;51.494;11.958;2022-07-18T18:56:30;26.10;41.10
7192;DHT22;3637;51.494;11.958;2022-07-18T18:59:32;26.10;41.40
7192;DHT22;3637;51.494;11.958;2022-07-18T19:02:34;25.90;41.90
7192;DHT22;3637;51.494;11.958;2022-07-18T19:05:36;25.80;42.00
7192;DHT22;3637;51.494;11.958;2022-07-18T19:08:38;25.80;42.20
7192;DHT22;3637;51.494;11.958;2022-07-18T19:11:42;25.70;42.10
7192;DHT22;3637;51.494;11.958;2022-07-18T19:14:44;25.70;42.00
7192;DHT22;3637;51.494;11.958;2022-07-18T19:17:46;25.60;42.00
7192;DHT22;3637;51.494;11.958;2022-07-18T19:20:48;25.60;41.90
7192;DHT22;3637;51.494;11.958;2022-07-18T19:23:50;25.50;41.80
7192;DHT22;3637;51.494;11.958;2022-07-18T19:26:54;25.50;41.90
7192;DHT22;3637;51.494;11.958;2022-07-18T19:29:56;25.40;42.00
7192;DHT22;3637;51.494;11.958;2022-07-18T19:32:58;25.40;42.30
7192;DHT22;3637;51.494;11.958;2022-07-18T19:36:00;25.30;42.40